Time;durP1;ratioP1;P1;durP2;ratioP2;P2;SDS_P1;SDS_P2;PMS_P1;PMS_P2;Temp;Humidity;BMP_temperature;BMP_pressure;BME280_temperature;BME280_humidity;BME280_pressure;Samples;Min_cycle;Max_cycle;Signal;HPM_P1;HPM_P2
2020/01/31 00:00:38;;;;;;;1.2;0.85;;;;;;;8.94;95.00781;94658.87;;;;
2020/01/31 00:01:43;;;;;;;1.2;0.85;;;;;;;8.94;95.00781;94658.87;;;;
2020/01/31 00:02:44;;;;;;;1.2;0.85;;;;;;;8.94;95.00781;94658.87;;;;
2020/01/31 00:03:45;;;;;;;1.2;0.85;;;;;;;8.94;95.00781;94658.87;;;;
2020/01/31 00:04:45;;;;;;;1.2;0.85;;;;;;;8.94;95.00781;94658.87;;;;
2020/01/31 00:11:06;;;;;;;0.7;0.7;;;;;;;8.82;95.5127;94634.72;;;;
2020/01/31 00:12:11;;;;;;;0.7;0.7;;;;;;;8.82;95.5127;94634.72;;;;
2020/01/31 00:13:14;;;;;;;0.7;0.7;;;;;;;8.82;95.5127;94634.72;;;;
2020/01/31 00:14:16;;;;;;;0.7;0.7;;;;;;;8.82;95.5127;94634.72;;;;
2020/01/31 00:15:21;;;;;;;0.7;0.7;;;;;;;8.82;95.5127;94634.72;;;;
2020/01/31 00:20:23;;;;;;;0.6;0.6;;;;;;;8.79;95.19824;94654.57;;;;
2020/01/31 00:21:24;;;;;;;0.6;0.6;;;;;;;8.79;95.19824;94654.57;;;;
2020/01/31 00:22:30;;;;;;;1.3;0.75;;;;;;;8.83;95.96875;94639.97;;;;
2020/01/31 00:23:31;;;;;;;1.3;0.75;;;;;;;8.83;95.96875;94639.97;;;;
2020/01/31 00:24:31;;;;;;;1.2;0.8;;;;;;;8.95;96.61133;94642.52;;;;
2020/01/31 00:25:32;;;;;;;1.2;0.8;;;;;;;8.95;96.61133;94642.52;;;;
2020/01/31 00:26:32;;;;;;;1.2;0.8;;;;;;;8.95;96.61133;94642.52;;;;
2020/01/31 00:27:33;;;;;;;1.2;0.8;;;;;;;8.95;96.61133;94642.52;;;;
2020/01/31 00:28:34;;;;;;;1.2;0.8;;;;;;;8.95;96.61133;94642.52;;;;
2020/01/31 00:29:36;;;;;;;1.2;0.8;;;;;;;8.95;96.61133;94642.52;;;;
2020/01/31 00:30:37;;;;;;;1.2;0.8;;;;;;;8.95;96.61133;94642.52;;;;
2020/01/31 00:31:37;;;;;;;1.2;0.8;;;;;;;8.95;96.61133;94642.52;;;;
2020/01/31 00:32:38;;;;;;;1.2;0.8;;;;;;;8.95;96.61133;94642.52;;;;
2020/01/31 00:33:38;;;;;;;1.2;0.8;;;;;;;8.95;96.61133;94642.52;;;;
2020/01/31 00:34:41;;;;;;;1.2;0.8;;;;;;;8.95;96.61133;94642.52;;;;
2020/01/31 00:35:41;;;;;;;1.2;0.8;;;;;;;8.95;96.61133;94642.52;;;;
2020/01/31 00:36:41;;;;;;;1.2;0.8;;;;;;;8.95;96.61133;94642.52;;;;
2020/01/31 00:37:42;;;;;;;0.7;0.7;;;;;;;9.08;95.0918;94631.03;;;;
2020/01/31 00:38:42;;;;;;;0.7;0.7;;;;;;;9.08;95.0918;94631.03;;;;
2020/01/31 00:39:44;;;;;;;0.7;0.7;;;;;;;9.08;95.0918;94631.03;;;;
2020/01/31 00:40:44;;;;;;;0.6;0.6;;;;;;;9.12;95.82129;94642.52;;;;
2020/01/31 00:41:45;;;;;;;0.6;0.6;;;;;;;9.12;95.82129;94642.52;;;;
2020/01/31 00:42:45;;;;;;;0.6;0.6;;;;;;;9.12;95.82129;94642.52;;;;
2020/01/31 00:43:45;;;;;;;0.6;0.6;;;;;;;9.12;95.82129;94642.52;;;;
2020/01/31 00:44:46;;;;;;;0.6;0.6;;;;;;;9.12;95.82129;94642.52;;;;
2020/01/31 00:45:46;;;;;;;0.6;0.6;;;;;;;9.12;95.82129;94642.52;;;;
2020/01/31 00:46:47;;;;;;;0.6;0.6;;;;;;;9.12;95.82129;94642.52;;;;
2020/01/31 00:47:47;;;;;;;0.6;0.6;;;;;;;9.12;95.82129;94642.52;;;;
2020/01/31 00:48:48;;;;;;;0.6;0.6;;;;;;;9.12;95.82129;94642.52;;;;
2020/01/31 00:49:48;;;;;;;0.6;0.6;;;;;;;9.12;95.82129;94642.52;;;;
2020/01/31 00:50:49;;;;;;;0.6;0.6;;;;;;;9.12;95.82129;94642.52;;;;
2020/01/31 00:51:49;;;;;;;0.8;0.8;;;;;;;9.17;95.18652;94656.52;;;;
2020/01/31 00:52:50;;;;;;;0.8;0.8;;;;;;;9.17;95.18652;94656.52;;;;
2020/01/31 00:53:50;;;;;;;0.7;0.7;;;;;;;9.25;95.8584;94650.82;;;;
2020/01/31 00:54:51;;;;;;;0.7;0.7;;;;;;;9.25;95.8584;94650.82;;;;
2020/01/31 00:55:51;;;;;;;0.7;0.7;;;;;;;9.25;95.8584;94650.82;;;;
2020/01/31 00:56:52;;;;;;;0.7;0.7;;;;;;;9.25;95.8584;94650.82;;;;
2020/01/31 00:57:52;;;;;;;0.7;0.7;;;;;;;9.25;95.8584;94650.82;;;;
2020/01/31 00:58:53;;;;;;;0.7;0.7;;;;;;;9.25;95.8584;94650.82;;;;
2020/01/31 00:59:53;;;;;;;0.7;0.7;;;;;;;9.25;95.8584;94650.82;;;;
2020/01/31 01:00:53;;;;;;;0.7;0.7;;;;;;;9.25;95.8584;94650.82;;;;
2020/01/31 01:02:39;;;;;;;0.7;0.7;;;;;;;9.25;95.8584;94650.82;;;;
2020/01/31 01:03:44;;;;;;;0.7;0.7;;;;;;;9.25;95.8584;94650.82;;;;
2020/01/31 01:04:55;;;;;;;0.7;0.7;;;;;;;9.34;95.00977;94649.36;;;;
2020/01/31 01:05:56;;;;;;;0.7;0.7;;;;;;;9.34;95.00977;94649.36;;;;
2020/01/31 01:07:06;;;;;;;0.7;0.7;;;;;;;9.34;95.00977;94649.36;;;;
2020/01/31 01:08:06;;;;;;;0.7;0.7;;;;;;;9.34;95.00977;94649.36;;;;
2020/01/31 01:09:16;;;;;;;0.7;0.7;;;;;;;9.34;95.00977;94649.36;;;;
2020/01/31 01:12:49;;;;;;;0.7;0.7;;;;;;;9.69;95.93457;94652.25;;;;
2020/01/31 01:13:49;;;;;;;0.7;0.7;;;;;;;9.69;95.93457;94652.25;;;;
2020/01/31 01:14:50;;;;;;;0.7;0.7;;;;;;;9.69;95.93457;94652.25;;;;
2020/01/31 01:16:00;;;;;;;0.7;0.7;;;;;;;9.69;95.93457;94652.25;;;;
2020/01/31 01:17:02;;;;;;;0.7;0.7;;;;;;;9.69;95.93457;94652.25;;;;
2020/01/31 01:18:04;;;;;;;0.7;0.7;;;;;;;9.69;95.93457;94652.25;;;;
2020/01/31 01:19:15;;;;;;;0.7;0.7;;;;;;;9.69;95.93457;94652.25;;;;
2020/01/31 01:20:18;;;;;;;0.7;0.7;;;;;;;9.69;95.93457;94652.25;;;;
2020/01/31 01:21:19;;;;;;;0.7;0.7;;;;;;;9.69;95.93457;94652.25;;;;
2020/01/31 01:22:33;;;;;;;0.7;0.7;;;;;;;9.69;95.93457;94652.25;;;;
2020/01/31 01:23:35;;;;;;;0.7;0.7;;;;;;;9.48;95.53027;94666.74;;;;
2020/01/31 01:24:38;;;;;;;0.7;0.7;;;;;;;9.48;95.53027;94666.74;;;;
2020/01/31 01:25:39;;;;;;;0.7;0.7;;;;;;;9.5;96.27637;94664.61;;;;
2020/01/31 01:26:39;;;;;;;0.7;0.7;;;;;;;9.5;96.27637;94664.61;;;;
2020/01/31 01:27:40;;;;;;;0.7;0.7;;;;;;;9.5;96.27637;94664.61;;;;
2020/01/31 01:28:45;;;;;;;0.7;0.7;;;;;;;9.5;96.27637;94664.61;;;;
2020/01/31 01:29:50;;;;;;;0.7;0.7;;;;;;;9.5;96.27637;94664.61;;;;
2020/01/31 01:36:03;;;;;;;0.7;0.7;;;;;;;9.5;96.27637;94664.61;;;;
2020/01/31 01:37:12;;;;;;;0.7;0.7;;;;;;;9.52;95.75879;94664.36;;;;
2020/01/31 01:38:13;;;;;;;0.7;0.7;;;;;;;9.52;95.75879;94664.36;;;;
2020/01/31 01:39:13;;;;;;;0.6;0.6;;;;;;;9.58;96.27148;94664.74;;;;
2020/01/31 01:40:49;;;;;;;0.6;0.6;;;;;;;9.58;96.27148;94664.74;;;;
2020/01/31 01:41:55;;;;;;;0.6;0.6;;;;;;;9.58;96.27148;94664.74;;;;
2020/01/31 01:42:55;;;;;;;0.6;0.6;;;;;;;9.58;96.27148;94664.74;;;;
2020/01/31 01:43:56;;;;;;;0.6;0.6;;;;;;;9.58;96.27148;94664.74;;;;
2020/01/31 01:44:56;;;;;;;0.6;0.6;;;;;;;9.58;96.27148;94664.74;;;;
2020/01/31 01:46:02;;;;;;;0.6;0.6;;;;;;;9.58;96.27148;94664.74;;;;
2020/01/31 01:47:03;;;;;;;0.6;0.6;;;;;;;9.58;96.27148;94664.74;;;;
2020/01/31 01:48:20;;;;;;;0.6;0.6;;;;;;;9.58;96.27148;94664.74;;;;
2020/01/31 01:49:20;;;;;;;0.6;0.6;;;;;;;9.58;96.27148;94664.74;;;;
2020/01/31 01:50:21;;;;;;;0.75;0.75;;;;;;;9.69;95.93457;94659.81;;;;
2020/01/31 01:51:26;;;;;;;0.75;0.75;;;;;;;9.69;95.93457;94659.81;;;;
2020/01/31 01:52:26;;;;;;;0.6;0.6;;;;;;;9.76;96.56641;94670.83;;;;
2020/01/31 01:53:27;;;;;;;0.6;0.6;;;;;;;9.76;96.56641;94670.83;;;;
2020/01/31 01:54:27;;;;;;;0.6;0.6;;;;;;;9.76;96.56641;94670.83;;;;
2020/01/31 01:55:28;;;;;;;0.6;0.6;;;;;;;9.76;96.56641;94670.83;;;;
2020/01/31 01:56:28;;;;;;;0.6;0.6;;;;;;;9.76;96.56641;94670.83;;;;
2020/01/31 01:57:29;;;;;;;0.6;0.6;;;;;;;9.76;96.56641;94670.83;;;;
2020/01/31 01:58:29;;;;;;;0.6;0.6;;;;;;;9.76;96.56641;94670.83;;;;
2020/01/31 01:59:30;;;;;;;0.6;0.6;;;;;;;9.76;96.56641;94670.83;;;;
2020/01/31 02:00:31;;;;;;;0.6;0.6;;;;;;;9.76;96.56641;94670.83;;;;
2020/01/31 02:02:17;;;;;;;0.6;0.6;;;;;;;9.76;96.56641;94670.83;;;;
2020/01/31 02:03:26;;;;;;;0.7;0.7;;;;;;;9.84;95.9248;94678.11;;;;
2020/01/31 02:04:28;;;;;;;0.7;0.7;;;;;;;9.84;95.9248;94678.11;;;;
2020/01/31 02:05:34;;;;;;;0.8;0.8;;;;;;;9.9;96.5957;94680.2;;;;
2020/01/31 02:06:34;;;;;;;0.8;0.8;;;;;;;9.9;96.5957;94680.2;;;;
2020/01/31 02:07:35;;;;;;;0.8;0.8;;;;;;;9.9;96.5957;94680.2;;;;
2020/01/31 02:08:36;;;;;;;0.8;0.8;;;;;;;9.9;96.5957;94680.2;;;;
2020/01/31 02:09:36;;;;;;;0.8;0.8;;;;;;;9.9;96.5957;94680.2;;;;
2020/01/31 02:10:40;;;;;;;0.8;0.8;;;;;;;9.9;96.5957;94680.2;;;;
2020/01/31 02:11:41;;;;;;;0.8;0.8;;;;;;;9.9;96.5957;94680.2;;;;
2020/01/31 02:12:42;;;;;;;0.8;0.8;;;;;;;9.9;96.5957;94680.2;;;;
2020/01/31 02:13:42;;;;;;;0.8;0.8;;;;;;;9.9;96.5957;94680.2;;;;
2020/01/31 02:14:43;;;;;;;0.8;0.8;;;;;;;9.9;96.5957;94680.2;;;;
2020/01/31 02:15:43;;;;;;;0.8;0.8;;;;;;;9.9;96.5957;94680.2;;;;
2020/01/31 02:16:44;;;;;;;0.6;0.6;;;;;;;9.91;96.14258;94664.72;;;;
2020/01/31 02:17:44;;;;;;;0.6;0.6;;;;;;;9.91;96.14258;94664.72;;;;
2020/01/31 02:18:44;;;;;;;0.7;0.7;;;;;;;9.96;96.83203;94671.56;;;;
2020/01/31 02:19:45;;;;;;;0.7;0.7;;;;;;;9.96;96.83203;94671.56;;;;
2020/01/31 02:20:45;;;;;;;0.7;0.7;;;;;;;9.96;96.83203;94671.56;;;;
2020/01/31 02:21:46;;;;;;;0.7;0.7;;;;;;;9.96;96.83203;94671.56;;;;
2020/01/31 02:22:46;;;;;;;0.7;0.7;;;;;;;9.96;96.83203;94671.56;;;;
2020/01/31 02:23:47;;;;;;;0.7;0.7;;;;;;;9.96;96.83203;94671.56;;;;
2020/01/31 02:24:47;;;;;;;0.7;0.7;;;;;;;9.96;96.83203;94671.56;;;;
2020/01/31 02:25:48;;;;;;;0.7;0.7;;;;;;;9.96;96.83203;94671.56;;;;
2020/01/31 02:26:48;;;;;;;0.7;0.7;;;;;;;9.96;96.83203;94671.56;;;;
2020/01/31 02:27:49;;;;;;;0.7;0.7;;;;;;;9.96;96.83203;94671.56;;;;
2020/01/31 02:28:49;;;;;;;0.7;0.7;;;;;;;9.96;96.83203;94671.56;;;;
2020/01/31 02:29:50;;;;;;;0.6;0.6;;;;;;;9.96;96.43945;94675.61;;;;
2020/01/31 02:30:50;;;;;;;0.6;0.6;;;;;;;9.96;96.43945;94675.61;;;;
2020/01/31 02:31:51;;;;;;;0.7;0.7;;;;;;;10.01;97.46875;94682;;;;
2020/01/31 02:32:51;;;;;;;0.7;0.7;;;;;;;10.01;97.46875;94682;;;;
2020/01/31 02:33:51;;;;;;;0.7;0.7;;;;;;;10.01;97.46875;94682;;;;
2020/01/31 02:34:52;;;;;;;0.7;0.7;;;;;;;10.01;97.46875;94682;;;;
2020/01/31 02:35:52;;;;;;;0.7;0.7;;;;;;;10.01;97.46875;94682;;;;
2020/01/31 02:36:53;;;;;;;0.7;0.7;;;;;;;10.01;97.46875;94682;;;;
2020/01/31 02:37:53;;;;;;;0.7;0.7;;;;;;;10.01;97.46875;94682;;;;
2020/01/31 02:38:54;;;;;;;0.7;0.7;;;;;;;10.01;97.46875;94682;;;;
2020/01/31 02:39:54;;;;;;;0.7;0.7;;;;;;;10.01;97.46875;94682;;;;
2020/01/31 02:40:54;;;;;;;0.7;0.7;;;;;;;10.01;97.46875;94682;;;;
2020/01/31 02:41:55;;;;;;;0.7;0.7;;;;;;;10.01;97.46875;94682;;;;
2020/01/31 02:42:55;;;;;;;0.7;0.7;;;;;;;9.93;97.19727;94669.34;;;;
2020/01/31 02:43:56;;;;;;;0.7;0.7;;;;;;;9.93;97.19727;94669.34;;;;
2020/01/31 02:44:56;;;;;;;0.7;0.7;;;;;;;9.93;97.19727;94669.34;;;;
2020/01/31 02:45:57;;;;;;;0.7;0.7;;;;;;;9.93;97.19727;94669.34;;;;
2020/01/31 02:46:57;;;;;;;0.7;0.7;;;;;;;9.93;97.19727;94669.34;;;;
2020/01/31 02:47:57;;;;;;;0.7;0.7;;;;;;;9.93;97.19727;94669.34;;;;
2020/01/31 02:48:58;;;;;;;0.7;0.7;;;;;;;9.93;97.19727;94669.34;;;;
2020/01/31 02:49:58;;;;;;;0.7;0.7;;;;;;;9.93;97.19727;94669.34;;;;
2020/01/31 02:50:59;;;;;;;0.7;0.7;;;;;;;9.93;97.19727;94669.34;;;;
2020/01/31 02:51:59;;;;;;;0.7;0.7;;;;;;;9.93;97.19727;94669.34;;;;
2020/01/31 02:53:00;;;;;;;0.8;0.6;;;;;;;9.88;97.97266;94658.48;;;;
2020/01/31 02:54:00;;;;;;;0.8;0.6;;;;;;;9.88;97.97266;94658.48;;;;
2020/01/31 02:55:00;;;;;;;0.8;0.6;;;;;;;9.88;97.97266;94658.48;;;;
2020/01/31 02:56:01;;;;;;;0.8;0.6;;;;;;;9.88;97.97266;94658.48;;;;
2020/01/31 02:57:02;;;;;;;0.8;0.6;;;;;;;9.88;97.97266;94658.48;;;;
2020/01/31 02:58:03;;;;;;;0.8;0.6;;;;;;;9.88;97.97266;94658.48;;;;
2020/01/31 02:59:03;;;;;;;0.8;0.6;;;;;;;9.88;97.97266;94658.48;;;;
2020/01/31 03:00:04;;;;;;;0.8;0.6;;;;;;;9.88;97.97266;94658.48;;;;
2020/01/31 03:01:07;;;;;;;0.8;0.6;;;;;;;9.88;97.97266;94658.48;;;;
2020/01/31 03:02:10;;;;;;;0.8;0.6;;;;;;;9.88;97.97266;94658.48;;;;
2020/01/31 03:03:12;;;;;;;0.8;0.6;;;;;;;9.88;97.97266;94658.48;;;;
2020/01/31 03:04:13;;;;;;;0.6;0.6;;;;;;;9.89;97.79395;94652.42;;;;
2020/01/31 03:05:21;;;;;;;0.6;0.6;;;;;;;9.89;97.79395;94652.42;;;;
2020/01/31 03:06:22;;;;;;;0.6;0.6;;;;;;;9.98;98.39844;94669.81;;;;
2020/01/31 03:07:22;;;;;;;0.6;0.6;;;;;;;9.98;98.39844;94669.81;;;;
2020/01/31 03:08:23;;;;;;;0.6;0.6;;;;;;;9.98;98.39844;94669.81;;;;
2020/01/31 03:09:23;;;;;;;0.6;0.6;;;;;;;9.98;98.39844;94669.81;;;;
2020/01/31 03:10:25;;;;;;;0.6;0.6;;;;;;;9.98;98.39844;94669.81;;;;
2020/01/31 03:11:26;;;;;;;0.6;0.6;;;;;;;9.98;98.39844;94669.81;;;;
2020/01/31 03:12:26;;;;;;;0.6;0.6;;;;;;;9.98;98.39844;94669.81;;;;
2020/01/31 03:13:27;;;;;;;0.6;0.6;;;;;;;9.98;98.39844;94669.81;;;;
2020/01/31 03:14:27;;;;;;;0.6;0.6;;;;;;;9.98;98.39844;94669.81;;;;
2020/01/31 03:15:28;;;;;;;0.6;0.6;;;;;;;9.98;98.39844;94669.81;;;;
2020/01/31 03:16:28;;;;;;;0.6;0.6;;;;;;;9.98;98.39844;94669.81;;;;
2020/01/31 03:17:29;;;;;;;0.6;0.6;;;;;;;9.98;98.39844;94669.81;;;;
2020/01/31 03:18:29;;;;;;;0.6;0.6;;;;;;;9.98;98.39844;94669.81;;;;
2020/01/31 03:19:29;;;;;;;0.6;0.6;;;;;;;9.98;98.39844;94669.81;;;;
2020/01/31 03:20:30;;;;;;;0.6;0.6;;;;;;;9.98;98.39844;94669.81;;;;
2020/01/31 03:21:30;;;;;;;0.6;0.6;;;;;;;9.98;98.39844;94669.81;;;;
2020/01/31 03:22:31;;;;;;;0.6;0.6;;;;;;;9.98;98.39844;94669.81;;;;
2020/01/31 03:23:31;;;;;;;0.6;0.6;;;;;;;9.98;98.39844;94669.81;;;;
2020/01/31 03:24:32;;;;;;;0.6;0.6;;;;;;;9.98;98.39844;94669.81;;;;
2020/01/31 03:25:32;;;;;;;0.6;0.6;;;;;;;9.98;98.39844;94669.81;;;;
2020/01/31 03:26:32;;;;;;;0.6;0.6;;;;;;;9.98;98.39844;94669.81;;;;
2020/01/31 03:27:33;;;;;;;0.6;0.6;;;;;;;9.98;98.39844;94669.81;;;;
2020/01/31 03:28:33;;;;;;;0.5;0.5;;;;;;;10.36;96.48633;94654.19;;;;
2020/01/31 03:29:34;;;;;;;0.5;0.5;;;;;;;10.36;96.48633;94654.19;;;;
2020/01/31 03:30:34;;;;;;;0.5;0.5;;;;;;;10.36;96.48633;94654.19;;;;
2020/01/31 03:31:35;;;;;;;0.5;0.5;;;;;;;10.36;96.48633;94654.19;;;;
2020/01/31 03:32:35;;;;;;;0.5;0.5;;;;;;;10.36;96.48633;94654.19;;;;
2020/01/31 03:33:35;;;;;;;0.5;0.5;;;;;;;10.36;96.48633;94654.19;;;;
2020/01/31 03:34:36;;;;;;;0.5;0.5;;;;;;;10.36;96.48633;94654.19;;;;
2020/01/31 03:35:36;;;;;;;0.5;0.5;;;;;;;10.36;96.48633;94654.19;;;;
2020/01/31 03:36:37;;;;;;;0.5;0.5;;;;;;;10.36;96.48633;94654.19;;;;
2020/01/31 03:37:37;;;;;;;0.5;0.5;;;;;;;10.36;96.48633;94654.19;;;;
2020/01/31 03:38:37;;;;;;;0.6;0.6;;;;;;;10.44;96.13184;94677.24;;;;
2020/01/31 03:39:38;;;;;;;0.6;0.6;;;;;;;10.44;96.13184;94677.24;;;;
2020/01/31 03:40:38;;;;;;;0.6;0.6;;;;;;;10.44;96.13184;94677.24;;;;
2020/01/31 03:41:39;;;;;;;0.6;0.6;;;;;;;10.52;96.37305;94673.99;;;;
2020/01/31 03:42:40;;;;;;;0.6;0.6;;;;;;;10.52;96.37305;94673.99;;;;
2020/01/31 03:43:40;;;;;;;0.6;0.6;;;;;;;10.52;96.37305;94673.99;;;;
2020/01/31 03:44:43;;;;;;;0.6;0.6;;;;;;;10.52;96.37305;94673.99;;;;
2020/01/31 03:45:43;;;;;;;0.6;0.6;;;;;;;10.52;96.37305;94673.99;;;;
2020/01/31 03:46:56;;;;;;;0.6;0.6;;;;;;;10.52;96.37305;94673.99;;;;
2020/01/31 03:47:57;;;;;;;0.6;0.6;;;;;;;10.52;96.37305;94673.99;;;;
2020/01/31 03:48:57;;;;;;;0.6;0.6;;;;;;;10.52;96.37305;94673.99;;;;
2020/01/31 03:50:04;;;;;;;0.6;0.6;;;;;;;10.52;96.37305;94673.99;;;;
2020/01/31 03:51:06;;;;;;;0.6;0.6;;;;;;;10.52;96.37305;94673.99;;;;
2020/01/31 03:52:09;;;;;;;0.75;0.65;;;;;;;10.65;95.40039;94690.34;;;;
2020/01/31 03:53:13;;;;;;;0.75;0.65;;;;;;;10.65;95.40039;94690.34;;;;
2020/01/31 03:54:33;;;;;;;0.6;0.6;;;;;;;10.73;95.68457;94705.7;;;;
2020/01/31 03:55:38;;;;;;;0.6;0.6;;;;;;;10.73;95.68457;94705.7;;;;
2020/01/31 03:56:39;;;;;;;0.6;0.6;;;;;;;10.73;95.68457;94705.7;;;;
2020/01/31 03:57:47;;;;;;;0.6;0.6;;;;;;;10.73;95.68457;94705.7;;;;
2020/01/31 03:58:52;;;;;;;0.6;0.6;;;;;;;10.73;95.68457;94705.7;;;;
2020/01/31 03:59:54;;;;;;;0.6;0.6;;;;;;;10.73;95.68457;94705.7;;;;
2020/01/31 04:00:55;;;;;;;0.6;0.6;;;;;;;10.73;95.68457;94705.7;;;;
2020/01/31 04:01:55;;;;;;;0.6;0.6;;;;;;;10.73;95.68457;94705.7;;;;
2020/01/31 04:02:56;;;;;;;0.6;0.6;;;;;;;10.73;95.68457;94705.7;;;;
2020/01/31 04:03:56;;;;;;;0.6;0.6;;;;;;;10.73;95.68457;94705.7;;;;
2020/01/31 04:04:56;;;;;;;0.6;0.6;;;;;;;10.78;94.7373;94709.29;;;;
2020/01/31 04:05:57;;;;;;;0.6;0.6;;;;;;;10.78;94.7373;94709.29;;;;
2020/01/31 04:06:58;;;;;;;0.6;0.6;;;;;;;10.78;94.7373;94709.29;;;;
2020/01/31 04:07:59;;;;;;;0.6;0.6;;;;;;;10.84;95.09277;94720.45;;;;
2020/01/31 04:08:59;;;;;;;0.6;0.6;;;;;;;10.84;95.09277;94720.45;;;;
2020/01/31 04:10:02;;;;;;;0.6;0.6;;;;;;;10.84;95.09277;94720.45;;;;
2020/01/31 04:11:03;;;;;;;0.6;0.6;;;;;;;10.84;95.09277;94720.45;;;;
2020/01/31 04:12:03;;;;;;;0.6;0.6;;;;;;;10.84;95.09277;94720.45;;;;
2020/01/31 04:13:04;;;;;;;0.6;0.6;;;;;;;10.84;95.09277;94720.45;;;;
2020/01/31 04:14:04;;;;;;;0.6;0.6;;;;;;;10.84;95.09277;94720.45;;;;
2020/01/31 04:15:05;;;;;;;0.6;0.6;;;;;;;10.84;95.09277;94720.45;;;;
2020/01/31 04:16:05;;;;;;;0.6;0.6;;;;;;;10.84;95.09277;94720.45;;;;
2020/01/31 04:17:06;;;;;;;0.6;0.6;;;;;;;10.84;95.09277;94720.45;;;;
2020/01/31 04:18:06;;;;;;;0.7;0.7;;;;;;;10.86;94.13672;94736.4;;;;
2020/01/31 04:19:07;;;;;;;0.7;0.7;;;;;;;10.86;94.13672;94736.4;;;;
2020/01/31 04:20:10;;;;;;;0.7;0.7;;;;;;;10.86;94.13672;94736.4;;;;
2020/01/31 04:21:11;;;;;;;0.6;0.6;;;;;;;10.91;94.51074;94732.4;;;;
2020/01/31 04:22:12;;;;;;;0.6;0.6;;;;;;;10.91;94.51074;94732.4;;;;
2020/01/31 04:23:13;;;;;;;0.6;0.6;;;;;;;10.91;94.51074;94732.4;;;;
2020/01/31 04:24:13;;;;;;;0.6;0.6;;;;;;;10.91;94.51074;94732.4;;;;
2020/01/31 04:25:14;;;;;;;0.6;0.6;;;;;;;10.91;94.51074;94732.4;;;;
2020/01/31 04:26:14;;;;;;;0.6;0.6;;;;;;;10.91;94.51074;94732.4;;;;
2020/01/31 04:27:15;;;;;;;0.6;0.6;;;;;;;10.91;94.51074;94732.4;;;;
2020/01/31 04:28:15;;;;;;;0.6;0.6;;;;;;;10.91;94.51074;94732.4;;;;
2020/01/31 04:29:16;;;;;;;0.6;0.6;;;;;;;10.91;94.51074;94732.4;;;;
2020/01/31 04:30:16;;;;;;;0.6;0.6;;;;;;;10.91;94.51074;94732.4;;;;
2020/01/31 04:31:17;;;;;;;0.7;0.7;;;;;;;10.93;93.88672;94719.06;;;;
2020/01/31 04:32:17;;;;;;;0.7;0.7;;;;;;;10.93;93.88672;94719.06;;;;
2020/01/31 04:33:18;;;;;;;0.7;0.7;;;;;;;10.93;93.88672;94719.06;;;;
2020/01/31 04:34:20;;;;;;;0.8;0.7;;;;;;;10.98;94.27148;94719;;;;
2020/01/31 04:35:21;;;;;;;0.8;0.7;;;;;;;10.98;94.27148;94719;;;;
2020/01/31 04:36:23;;;;;;;0.8;0.7;;;;;;;10.98;94.27148;94719;;;;
2020/01/31 04:37:29;;;;;;;0.8;0.7;;;;;;;10.98;94.27148;94719;;;;
2020/01/31 04:38:30;;;;;;;0.8;0.7;;;;;;;10.98;94.27148;94719;;;;
2020/01/31 04:39:30;;;;;;;0.8;0.7;;;;;;;10.98;94.27148;94719;;;;
2020/01/31 04:40:31;;;;;;;0.8;0.7;;;;;;;10.98;94.27148;94719;;;;
2020/01/31 04:41:31;;;;;;;0.8;0.7;;;;;;;10.98;94.27148;94719;;;;
2020/01/31 04:42:37;;;;;;;0.8;0.7;;;;;;;10.98;94.27148;94719;;;;
2020/01/31 04:43:41;;;;;;;0.8;0.7;;;;;;;10.98;94.27148;94719;;;;
2020/01/31 04:44:49;;;;;;;0.7;0.7;;;;;;;10.96;93.56445;94753.55;;;;
2020/01/31 04:46:00;;;;;;;0.7;0.7;;;;;;;10.96;93.56445;94753.55;;;;
2020/01/31 04:47:02;;;;;;;1.4;0.8;;;;;;;10.99;94.09082;94748.56;;;;
2020/01/31 04:48:11;;;;;;;1.4;0.8;;;;;;;10.99;94.09082;94748.56;;;;
2020/01/31 04:49:15;;;;;;;1.4;0.8;;;;;;;10.99;94.09082;94748.56;;;;
2020/01/31 04:50:22;;;;;;;1.4;0.8;;;;;;;10.99;94.09082;94748.56;;;;
2020/01/31 04:51:32;;;;;;;1.4;0.8;;;;;;;10.99;94.09082;94748.56;;;;
2020/01/31 04:52:38;;;;;;;1.4;0.8;;;;;;;10.99;94.09082;94748.56;;;;
2020/01/31 04:54:01;;;;;;;1.4;0.8;;;;;;;10.99;94.09082;94748.56;;;;
2020/01/31 04:55:03;;;;;;;1.4;0.8;;;;;;;10.99;94.09082;94748.56;;;;
2020/01/31 04:56:07;;;;;;;1.4;0.8;;;;;;;10.99;94.09082;94748.56;;;;
2020/01/31 04:57:09;;;;;;;1.4;0.8;;;;;;;10.99;94.09082;94748.56;;;;
2020/01/31 04:58:12;;;;;;;0.7;0.7;;;;;;;10.91;93.76758;94734.58;;;;
2020/01/31 04:59:33;;;;;;;0.7;0.7;;;;;;;10.91;93.76758;94734.58;;;;
2020/01/31 05:01:11;;;;;;;0.7;0.7;;;;;;;10.91;93.76758;94734.58;;;;
2020/01/31 05:02:12;;;;;;;0.7;0.7;;;;;;;10.91;93.76758;94734.58;;;;
2020/01/31 05:03:12;;;;;;;0.7;0.7;;;;;;;10.91;93.76758;94734.58;;;;
2020/01/31 05:04:13;;;;;;;0.7;0.7;;;;;;;10.91;93.76758;94734.58;;;;
2020/01/31 05:05:14;;;;;;;0.7;0.7;;;;;;;10.91;93.76758;94734.58;;;;
2020/01/31 05:06:19;;;;;;;0.7;0.7;;;;;;;10.91;93.76758;94734.58;;;;
2020/01/31 05:07:20;;;;;;;0.7;0.7;;;;;;;10.91;93.76758;94734.58;;;;
2020/01/31 05:08:21;;;;;;;0.9;0.7;;;;;;;10.97;94.1416;94745.7;;;;
2020/01/31 05:09:21;;;;;;;0.9;0.7;;;;;;;10.97;94.1416;94745.7;;;;
2020/01/31 05:10:21;;;;;;;0.9;0.7;;;;;;;10.97;94.1416;94745.7;;;;
2020/01/31 05:11:23;;;;;;;0.9;0.7;;;;;;;10.97;94.1416;94745.7;;;;
2020/01/31 05:12:24;;;;;;;0.9;0.7;;;;;;;10.97;94.1416;94745.7;;;;
2020/01/31 05:13:24;;;;;;;0.9;0.7;;;;;;;10.97;94.1416;94745.7;;;;
2020/01/31 05:14:25;;;;;;;0.9;0.7;;;;;;;10.97;94.1416;94745.7;;;;
2020/01/31 05:15:25;;;;;;;0.9;0.7;;;;;;;10.97;94.1416;94745.7;;;;
2020/01/31 05:16:26;;;;;;;0.9;0.7;;;;;;;10.97;94.1416;94745.7;;;;
2020/01/31 05:17:26;;;;;;;0.9;0.7;;;;;;;10.97;94.1416;94745.7;;;;
2020/01/31 05:18:27;;;;;;;0.9;0.7;;;;;;;10.97;94.1416;94745.7;;;;
2020/01/31 05:19:28;;;;;;;0.7;0.7;;;;;;;11.02;93.7666;94758.06;;;;
2020/01/31 05:20:29;;;;;;;0.7;0.7;;;;;;;11.02;93.7666;94758.06;;;;
2020/01/31 05:21:29;;;;;;;0.8;0.8;;;;;;;11.09;94.12305;94765.86;;;;
2020/01/31 05:22:30;;;;;;;0.8;0.8;;;;;;;11.09;94.12305;94765.86;;;;
2020/01/31 05:23:30;;;;;;;0.8;0.8;;;;;;;11.09;94.12305;94765.86;;;;
2020/01/31 05:24:31;;;;;;;0.8;0.8;;;;;;;11.09;94.12305;94765.86;;;;
2020/01/31 05:25:31;;;;;;;0.8;0.8;;;;;;;11.09;94.12305;94765.86;;;;
2020/01/31 05:26:31;;;;;;;0.8;0.8;;;;;;;11.09;94.12305;94765.86;;;;
2020/01/31 05:27:32;;;;;;;0.8;0.8;;;;;;;11.09;94.12305;94765.86;;;;
2020/01/31 05:28:32;;;;;;;0.8;0.8;;;;;;;11.09;94.12305;94765.86;;;;
2020/01/31 05:29:33;;;;;;;0.8;0.8;;;;;;;11.09;94.12305;94765.86;;;;
2020/01/31 05:30:33;;;;;;;0.8;0.8;;;;;;;11.09;94.12305;94765.86;;;;
2020/01/31 05:31:34;;;;;;;0.8;0.8;;;;;;;11.09;94.12305;94765.86;;;;
2020/01/31 05:32:34;;;;;;;0.7;0.7;;;;;;;11.18;93.19531;94783.26;;;;
2020/01/31 05:33:35;;;;;;;0.7;0.7;;;;;;;11.18;93.19531;94783.26;;;;
2020/01/31 05:34:36;;;;;;;0.7;0.7;;;;;;;11.18;93.19531;94783.26;;;;
2020/01/31 05:35:36;;;;;;;0.6;0.6;;;;;;;11.25;93.47559;94762.27;;;;
2020/01/31 05:36:37;;;;;;;0.6;0.6;;;;;;;11.25;93.47559;94762.27;;;;
2020/01/31 05:37:37;;;;;;;0.6;0.6;;;;;;;11.25;93.47559;94762.27;;;;
2020/01/31 05:38:38;;;;;;;0.6;0.6;;;;;;;11.25;93.47559;94762.27;;;;
2020/01/31 05:39:38;;;;;;;0.6;0.6;;;;;;;11.25;93.47559;94762.27;;;;
2020/01/31 05:40:39;;;;;;;0.6;0.6;;;;;;;11.25;93.47559;94762.27;;;;
2020/01/31 05:41:39;;;;;;;0.6;0.6;;;;;;;11.25;93.47559;94762.27;;;;
2020/01/31 05:42:40;;;;;;;0.6;0.6;;;;;;;11.25;93.47559;94762.27;;;;
2020/01/31 05:43:41;;;;;;;0.6;0.6;;;;;;;11.25;93.47559;94762.27;;;;
2020/01/31 05:44:41;;;;;;;0.6;0.6;;;;;;;11.25;93.47559;94762.27;;;;
2020/01/31 05:45:42;;;;;;;0.7;0.7;;;;;;;11.3;92.50586;94776.78;;;;
2020/01/31 05:46:42;;;;;;;0.7;0.7;;;;;;;11.3;92.50586;94776.78;;;;
2020/01/31 05:47:43;;;;;;;0.7;0.7;;;;;;;11.3;92.50586;94776.78;;;;
2020/01/31 05:48:43;;;;;;;0.7;0.7;;;;;;;11.3;92.50586;94776.78;;;;
2020/01/31 05:49:44;;;;;;;0.7;0.7;;;;;;;11.3;92.50586;94776.78;;;;
2020/01/31 05:50:44;;;;;;;0.7;0.7;;;;;;;11.3;92.50586;94776.78;;;;
2020/01/31 05:51:45;;;;;;;0.7;0.7;;;;;;;11.3;92.50586;94776.78;;;;
2020/01/31 05:52:45;;;;;;;0.7;0.7;;;;;;;11.3;92.50586;94776.78;;;;
2020/01/31 05:53:45;;;;;;;0.7;0.7;;;;;;;11.3;92.50586;94776.78;;;;
2020/01/31 05:54:46;;;;;;;0.7;0.7;;;;;;;11.3;92.50586;94776.78;;;;
2020/01/31 05:55:46;;;;;;;0.7;0.7;;;;;;;11.3;92.50586;94776.78;;;;
2020/01/31 05:56:47;;;;;;;0.65;0.65;;;;;;;11.23;92.37402;94796.42;;;;
2020/01/31 05:57:48;;;;;;;0.65;0.65;;;;;;;11.23;92.37402;94796.42;;;;
2020/01/31 05:58:48;;;;;;;0.65;0.65;;;;;;;11.23;92.37402;94796.42;;;;
2020/01/31 05:59:49;;;;;;;0.65;0.65;;;;;;;11.23;92.37402;94796.42;;;;
2020/01/31 06:00:49;;;;;;;0.65;0.65;;;;;;;11.23;92.37402;94796.42;;;;
2020/01/31 06:01:49;;;;;;;0.65;0.65;;;;;;;11.23;92.37402;94796.42;;;;
2020/01/31 06:02:50;;;;;;;0.65;0.65;;;;;;;11.23;92.37402;94796.42;;;;
2020/01/31 06:03:54;;;;;;;0.65;0.65;;;;;;;11.23;92.37402;94796.42;;;;
2020/01/31 06:04:55;;;;;;;0.65;0.65;;;;;;;11.23;92.37402;94796.42;;;;
2020/01/31 06:05:56;;;;;;;0.65;0.65;;;;;;;11.23;92.37402;94796.42;;;;
2020/01/31 06:07:03;;;;;;;0.8;0.8;;;;;;;11.17;92.40332;94808.25;;;;
2020/01/31 06:08:23;;;;;;;0.8;0.8;;;;;;;11.17;92.40332;94808.25;;;;
2020/01/31 06:09:29;;;;;;;0.8;0.8;;;;;;;11.17;92.40332;94808.25;;;;
2020/01/31 06:10:52;;;;;;;0.8;0.8;;;;;;;11.17;92.40332;94808.25;;;;
2020/01/31 06:15:14;;;;;;;0.8;0.8;;;;;;;11.17;92.40332;94808.25;;;;
2020/01/31 06:16:20;;;;;;;0.8;0.8;;;;;;;11.17;92.40332;94808.25;;;;
2020/01/31 06:17:21;;;;;;;0.9;0.9;;;;;;;11.21;92.36816;94819.78;;;;
2020/01/31 06:18:21;;;;;;;0.9;0.9;;;;;;;11.21;92.36816;94819.78;;;;
2020/01/31 06:19:22;;;;;;;0.9;0.9;;;;;;;11.21;92.36816;94819.78;;;;
2020/01/31 06:20:22;;;;;;;0.9;0.9;;;;;;;11.21;92.36816;94819.78;;;;
2020/01/31 06:21:23;;;;;;;0.9;0.9;;;;;;;11.21;92.36816;94819.78;;;;
2020/01/31 06:22:23;;;;;;;0.9;0.9;;;;;;;11.21;92.36816;94819.78;;;;
2020/01/31 06:23:23;;;;;;;0.9;0.9;;;;;;;11.21;92.36816;94819.78;;;;
2020/01/31 06:24:24;;;;;;;0.9;0.9;;;;;;;11.21;92.36816;94819.78;;;;
2020/01/31 06:25:24;;;;;;;0.9;0.9;;;;;;;11.21;92.36816;94819.78;;;;
2020/01/31 06:26:25;;;;;;;0.9;0.9;;;;;;;11.21;92.36816;94819.78;;;;
2020/01/31 06:27:25;;;;;;;0.9;0.9;;;;;;;11.21;92.36816;94819.78;;;;